Time;durP1;ratioP1;P1;durP2;ratioP2;P2;SDS_P1;SDS_P2;PMS_P1;PMS_P2;Temp;Humidity;BMP_temperature;BMP_pressure;BME280_temperature;BME280_humidity;BME280_pressure;Samples;Min_cycle;Max_cycle;Signal;HPM_P1;HPM_P2
2022/01/30 00:04:31;;;;;;;5.03;1.20;;;8.50;99.90;;;;;;10389232;28;20099;-62
2022/01/30 00:09:33;;;;;;;14.90;1.95;;;8.60;99.90;;;;;;10389585;28;20534;-62
2022/01/30 00:14:37;;;;;;;13.73;2.67;;;8.60;99.90;;;;;;10386476;28;20050;-62
2022/01/30 00:19:44;;;;;;;9.90;1.70;;;8.60;99.90;;;;;;10388958;28;20162;-62
2022/01/30 00:24:56;;;;;;;10.40;1.30;;;8.60;98.20;;;;;;10377760;28;20148;-62
2022/01/30 00:29:59;;;;;;;17.58;1.70;;;8.70;96.30;;;;;;10381520;28;20150;-61
2022/01/30 00:35:00;;;;;;;5.53;1.02;;;8.60;96.20;;;;;;10380119;28;20175;-62
2022/01/30 00:40:02;;;;;;;8.55;2.42;;;8.60;97.40;;;;;;10385270;28;20111;-62
2022/01/30 00:45:05;;;;;;;11.57;1.50;;;8.50;97.10;;;;;;10381753;28;20045;-63
2022/01/30 00:50:07;;;;;;;10.18;1.38;;;8.50;94.70;;;;;;10381040;28;20130;-62
2022/01/30 00:55:09;;;;;;;6.65;1.08;;;8.50;90.90;;;;;;10384739;28;20139;-62
2022/01/30 01:00:11;;;;;;;5.60;0.88;;;8.50;90.10;;;;;;10390136;28;20455;-62
2022/01/30 01:05:14;;;;;;;11.05;1.08;;;8.40;91.30;;;;;;10383645;28;20453;-63
2022/01/30 01:10:32;;;;;;;6.65;1.13;;;8.30;92.60;;;;;;10383562;28;20124;-62
2022/01/30 01:26:32;;;;;;;8.67;0.80;;;8.30;93.30;;;;;;10363615;28;20081;-61
2022/01/30 01:31:34;;;;;;;7.68;1.15;;;8.30;92.70;;;;;;10382225;28;20054;-61
2022/01/30 01:36:36;;;;;;;9.27;1.48;;;8.30;93.10;;;;;;10388437;28;20052;-62
2022/01/30 01:41:37;;;;;;;12.10;1.38;;;8.30;93.60;;;;;;10367217;28;20140;-61
2022/01/30 01:46:41;;;;;;;12.65;1.00;;;8.20;95.20;;;;;;10382347;28;20467;-61
2022/01/30 01:51:48;;;;;;;9.70;0.98;;;8.20;94.90;;;;;;10382095;28;20049;-61
2022/01/30 01:56:50;;;;;;;9.43;0.70;;;8.20;92.10;;;;;;10387194;28;20130;-61
2022/01/30 02:01:53;;;;;;;4.80;1.00;;;8.20;90.20;;;;;;10382439;28;20089;-61
2022/01/30 02:07:24;;;;;;;8.70;1.10;;;8.10;90.70;;;;;;10378912;28;20520;-61
2022/01/30 02:12:28;;;;;;;9.25;0.98;;;8.10;90.30;;;;;;10382882;28;20496;-61
2022/01/30 02:28:08;;;;;;;4.72;0.73;;;8.00;88.90;;;;;;10377868;28;20045;-61
2022/01/30 02:33:10;;;;;;;6.07;0.85;;;8.00;85.00;;;;;;10379482;28;20072;-61
2022/01/30 02:38:11;;;;;;;5.32;0.77;;;7.90;87.20;;;;;;10382325;28;20072;-62
2022/01/30 02:43:16;;;;;;;5.43;0.75;;;7.90;85.90;;;;;;10376974;28;20073;-62
2022/01/30 02:48:30;;;;;;;7.60;1.15;;;7.90;87.90;;;;;;10383240;28;20041;-61
2022/01/30 02:53:38;;;;;;;6.15;0.73;;;7.80;86.20;;;;;;10378033;28;20508;-61
2022/01/30 02:58:40;;;;;;;8.80;0.68;;;7.70;86.00;;;;;;10382173;28;20129;-61
2022/01/30 03:03:41;;;;;;;9.07;0.70;;;7.70;83.10;;;;;;10380751;28;20053;-61
2022/01/30 03:08:43;;;;;;;12.88;1.42;;;7.60;84.10;;;;;;10379946;28;20128;-61
2022/01/30 03:13:45;;;;;;;6.45;0.65;;;7.60;83.40;;;;;;10381064;28;20045;-61
2022/01/30 03:18:47;;;;;;;5.72;0.70;;;7.60;84.40;;;;;;10381971;28;20542;-61
2022/01/30 03:23:49;;;;;;;8.05;1.67;;;7.50;84.80;;;;;;10383219;28;20049;-62
2022/01/30 03:28:52;;;;;;;7.05;0.70;;;7.40;83.40;;;;;;10379341;28;20325;-60
2022/01/30 03:33:56;;;;;;;4.75;0.70;;;7.40;81.80;;;;;;10390347;28;20172;-61
2022/01/30 03:38:58;;;;;;;5.75;0.70;;;7.30;81.70;;;;;;10386931;28;20069;-61
2022/01/30 03:44:00;;;;;;;13.32;1.15;;;7.10;82.70;;;;;;10385597;28;20045;-61
2022/01/30 03:49:02;;;;;;;9.07;0.60;;;7.10;83.20;;;;;;10387663;28;20053;-61
2022/01/30 03:54:03;;;;;;;6.90;0.93;;;7.00;83.30;;;;;;10386593;28;20164;-61
2022/01/30 03:59:05;;;;;;;7.63;0.90;;;7.10;80.40;;;;;;10387862;28;20107;-61
2022/01/30 04:04:07;;;;;;;8.40;0.70;;;7.00;82.40;;;;;;10377796;28;20077;-61
2022/01/30 04:09:09;;;;;;;7.78;0.85;;;7.00;82.60;;;;;;10387447;28;20211;-62
2022/01/30 04:14:11;;;;;;;9.95;1.65;;;7.00;82.30;;;;;;10384915;28;20131;-61
2022/01/30 04:19:13;;;;;;;8.88;0.88;;;6.90;83.70;;;;;;10386501;28;20156;-61
2022/01/30 04:24:15;;;;;;;19.17;1.27;;;6.80;83.80;;;;;;10386365;28;20049;-61
2022/01/30 04:29:17;;;;;;;15.77;1.73;;;6.80;83.20;;;;;;10385560;28;20049;-63
2022/01/30 04:34:20;;;;;;;10.50;1.10;;;6.80;82.80;;;;;;10387591;28;20550;-62
2022/01/30 05:00:34;;;;;;;6.63;1.55;;;6.30;87.40;;;;;;10375733;28;20073;-61
2022/01/30 05:10:38;;;;;;;5.40;0.82;;;6.40;86.00;;;;;;10387570;28;20070;-61
2022/01/30 05:15:42;;;;;;;14.25;1.08;;;6.30;87.20;;;;;;10386873;28;20077;-61
2022/01/30 05:20:44;;;;;;;11.15;0.63;;;6.40;86.90;;;;;;10388216;28;20053;-61
2022/01/30 05:25:49;;;;;;;8.10;1.88;;;6.40;87.20;;;;;;10383376;28;20100;-61
2022/01/30 05:30:51;;;;;;;8.70;0.95;;;6.40;87.20;;;;;;10379414;28;20128;-60
2022/01/30 05:35:53;;;;;;;10.63;1.40;;;6.40;87.30;;;;;;10377469;28;20203;-61
2022/01/30 05:40:55;;;;;;;9.20;0.80;;;6.40;86.80;;;;;;10384801;28;20104;-61
2022/01/30 05:46:10;;;;;;;11.63;0.70;;;6.50;86.40;;;;;;10380571;28;20072;-61
2022/01/30 05:51:12;;;;;;;8.88;1.15;;;6.50;86.20;;;;;;10380662;28;20056;-61
2022/01/30 05:56:14;;;;;;;4.85;1.00;;;6.50;87.80;;;;;;10381584;28;20464;-61
2022/01/30 06:01:16;;;;;;;9.43;0.65;;;6.40;88.10;;;;;;10380989;28;20427;-62
2022/01/30 06:06:17;;;;;;;7.22;1.00;;;6.40;88.60;;;;;;10379370;28;20053;-62
2022/01/30 06:11:19;;;;;;;9.13;0.85;;;6.40;90.10;;;;;;10367063;28;20091;-61
2022/01/30 06:16:21;;;;;;;8.40;0.95;;;6.30;90.90;;;;;;10379901;28;20053;-63
2022/01/30 06:21:23;;;;;;;4.05;1.23;;;6.30;91.00;;;;;;10385039;28;20054;-62
2022/01/30 06:26:24;;;;;;;15.65;1.55;;;6.30;90.40;;;;;;10363985;28;20138;-61
2022/01/30 06:31:27;;;;;;;7.07;1.00;;;6.30;91.20;;;;;;10380344;28;20112;-61
2022/01/30 06:36:28;;;;;;;8.48;0.75;;;6.30;91.90;;;;;;10376861;28;20128;-60
2022/01/30 06:41:30;;;;;;;8.20;0.70;;;6.20;95.80;;;;;;10377430;28;20046;-62
2022/01/30 06:46:32;;;;;;;5.97;1.23;;;6.00;96.10;;;;;;10383628;28;20482;-61
2022/01/30 06:51:34;;;;;;;9.05;0.60;;;5.90;96.80;;;;;;10383174;28;20123;-60
2022/01/30 06:56:35;;;;;;;12.32;0.70;;;5.90;93.10;;;;;;10380270;28;20130;-61
2022/01/30 07:01:37;;;;;;;5.70;0.40;;;6.00;92.40;;;;;;10374723;28;20084;-64
2022/01/30 07:06:39;;;;;;;7.25;1.00;;;6.00;92.20;;;;;;10388268;28;20115;-64
2022/01/30 07:11:41;;;;;;;8.60;0.68;;;6.10;90.20;;;;;;10389823;28;20136;-63
2022/01/30 07:16:42;;;;;;;7.05;0.77;;;6.20;88.50;;;;;;10387768;28;20099;-63
2022/01/30 07:21:44;;;;;;;6.20;0.60;;;6.20;88.50;;;;;;10388731;28;20116;-63
2022/01/30 07:26:46;;;;;;;3.58;0.30;;;6.20;84.80;;;;;;10383271;28;20154;-64
2022/01/30 07:31:48;;;;;;;7.05;1.05;;;6.20;84.00;;;;;;10389237;28;20053;-64
2022/01/30 07:36:50;;;;;;;2.58;0.20;;;6.20;83.30;;;;;;10385550;28;20470;-63
2022/01/30 07:41:51;;;;;;;3.97;0.50;;;6.20;83.80;;;;;;10387013;28;20076;-63
2022/01/30 07:46:53;;;;;;;5.22;0.77;;;6.20;83.40;;;;;;10394902;28;20049;-63
2022/01/30 07:51:55;;;;;;;6.80;0.40;;;6.20;85.70;;;;;;10383643;28;20482;-63
2022/01/30 07:56:56;;;;;;;5.05;0.55;;;6.10;90.00;;;;;;10390319;28;20069;-63
2022/01/30 08:01:58;;;;;;;8.60;0.60;;;6.10;90.60;;;;;;10386043;28;20141;-64
2022/01/30 08:07:00;;;;;;;6.22;0.80;;;6.00;92.20;;;;;;10383692;28;20060;-64
2022/01/30 08:12:03;;;;;;;7.43;0.70;;;6.10;90.00;;;;;;10381381;28;20073;-64
2022/01/30 08:17:05;;;;;;;16.67;2.45;;;6.10;90.40;;;;;;10385017;28;20046;-65
2022/01/30 08:22:07;;;;;;;9.98;0.50;;;6.10;89.90;;;;;;10390244;28;20055;-64
2022/01/30 08:27:09;;;;;;;7.85;1.13;;;6.20;89.60;;;;;;10388600;28;20053;-64
2022/01/30 08:32:11;;;;;;;5.70;1.05;;;6.10;89.60;;;;;;10388260;28;20118;-64
2022/01/30 08:37:13;;;;;;;4.25;0.60;;;6.10;92.90;;;;;;10389285;28;20048;-64
2022/01/30 08:42:15;;;;;;;15.65;1.02;;;6.20;90.20;;;;;;10380768;28;20068;-62
2022/01/30 08:47:16;;;;;;;7.93;0.65;;;6.20;91.50;;;;;;10385525;28;20041;-62
2022/01/30 08:52:19;;;;;;;10.20;0.60;;;6.20;86.70;;;;;;10384971;28;20080;-62
2022/01/30 08:57:21;;;;;;;5.55;0.75;;;6.20;84.70;;;;;;10385509;28;20127;-63
2022/01/30 09:02:22;;;;;;;11.88;0.85;;;6.30;83.70;;;;;;10381789;28;20054;-64
2022/01/30 09:07:25;;;;;;;4.82;0.60;;;6.40;86.10;;;;;;10389447;28;20184;-64
2022/01/30 09:12:26;;;;;;;11.15;0.90;;;6.30;85.90;;;;;;10382866;28;20148;-64
2022/01/30 09:17:28;;;;;;;8.13;0.77;;;6.40;85.20;;;;;;10387656;28;20132;-64
2022/01/30 09:22:30;;;;;;;8.35;0.60;;;6.50;82.90;;;;;;10382099;28;20466;-64
2022/01/30 09:27:32;;;;;;;6.80;1.02;;;6.50;82.90;;;;;;10383248;28;20049;-64
2022/01/30 09:32:34;;;;;;;12.10;0.90;;;6.50;83.00;;;;;;10383170;28;20677;-64
2022/01/30 09:37:36;;;;;;;4.80;0.60;;;6.50;79.80;;;;;;10380809;28;20043;-64
2022/01/30 09:42:43;;;;;;;15.05;0.70;;;6.50;80.80;;;;;;10384064;28;20553;-63
2022/01/30 09:47:47;;;;;;;10.75;0.77;;;6.40;79.80;;;;;;10382639;28;20041;-64
2022/01/30 09:52:48;;;;;;;7.22;1.23;;;6.40;79.10;;;;;;10383441;28;20500;-64
2022/01/30 09:57:50;;;;;;;11.75;1.25;;;6.50;79.50;;;;;;10381970;28;20084;-64
2022/01/30 10:02:52;;;;;;;5.65;0.90;;;6.50;78.00;;;;;;10384034;28;20052;-64
2022/01/30 10:07:56;;;;;;;10.23;1.13;;;6.60;78.90;;;;;;10388158;28;20049;-65
2022/01/30 10:13:01;;;;;;;6.03;0.60;;;6.60;77.70;;;;;;10381846;28;20126;-65
2022/01/30 10:18:04;;;;;;;6.40;0.55;;;6.70;77.60;;;;;;10382966;28;20087;-65
2022/01/30 10:23:37;;;;;;;9.77;0.80;;;6.70;77.10;;;;;;10379923;28;20054;-65
2022/01/30 10:28:41;;;;;;;7.70;0.70;;;6.80;75.90;;;;;;10379804;28;20053;-64
2022/01/30 10:33:52;;;;;;;8.10;1.20;;;6.80;78.80;;;;;;10380766;28;20041;-64
2022/01/30 10:39:06;;;;;;;5.85;0.60;;;6.80;76.10;;;;;;10384392;28;20073;-65
2022/01/30 10:44:09;;;;;;;6.07;0.80;;;6.80;74.30;;;;;;10377926;28;20154;-65
2022/01/30 10:49:17;;;;;;;11.13;0.80;;;7.00;74.90;;;;;;10378087;28;20147;-65
2022/01/30 10:54:19;;;;;;;10.82;0.88;;;7.00;74.10;;;;;;10378525;28;21041;-64
2022/01/30 10:59:21;;;;;;;6.00;0.82;;;7.00;74.60;;;;;;10383089;28;20101;-67
2022/01/30 11:04:31;;;;;;;5.75;0.80;;;7.00;74.80;;;;;;10381996;28;20077;-64
2022/01/30 11:09:43;;;;;;;13.95;1.17;;;7.10;75.20;;;;;;10377582;28;20052;-65
2022/01/30 11:19:57;;;;;;;11.32;1.55;;;7.10;72.10;;;;;;10377831;28;20103;-63
2022/01/30 11:25:07;;;;;;;8.27;1.30;;;7.10;73.00;;;;;;10388144;28;20077;-62
2022/01/30 11:30:10;;;;;;;10.90;1.65;;;7.00;71.60;;;;;;10383857;28;20096;-62
2022/01/30 11:35:11;;;;;;;11.60;0.80;;;7.00;74.40;;;;;;10386701;28;20049;-61
2022/01/30 11:46:29;;;;;;;4.35;0.60;;;7.00;74.50;;;;;;10381528;28;20045;-60
2022/01/30 11:51:54;;;;;;;11.85;0.82;;;6.90;75.40;;;;;;10388011;28;20061;-61
2022/01/30 11:56:55;;;;;;;12.82;1.55;;;6.90;75.80;;;;;;10405971;28;20438;-60
2022/01/30 12:02:33;;;;;;;7.68;1.13;;;6.80;76.20;;;;;;10386775;28;20065;-60
2022/01/30 12:07:42;;;;;;;10.18;1.17;;;6.90;76.60;;;;;;10385387;28;20045;-62
2022/01/30 12:12:50;;;;;;;18.15;1.17;;;6.90;76.90;;;;;;10390773;28;20084;-62
2022/01/30 12:17:52;;;;;;;6.63;1.00;;;6.90;77.30;;;;;;10386682;28;20107;-60
2022/01/30 12:22:54;;;;;;;13.18;1.30;;;6.80;77.50;;;;;;10392927;28;20072;-61
2022/01/30 12:28:02;;;;;;;8.57;1.27;;;6.80;78.00;;;;;;10388479;28;20069;-62
2022/01/30 12:33:30;;;;;;;7.57;1.15;;;6.80;78.90;;;;;;10382553;28;20566;-62
2022/01/30 12:38:34;;;;;;;13.98;0.88;;;6.90;76.60;;;;;;10383082;28;20045;-62
2022/01/30 12:43:38;;;;;;;7.63;1.02;;;7.20;74.70;;;;;;10391360;28;20057;-61
2022/01/30 12:48:39;;;;;;;9.32;1.13;;;7.20;72.90;;;;;;10382652;28;20053;-61
2022/01/30 12:53:42;;;;;;;10.63;1.10;;;7.30;72.70;;;;;;10383638;28;20107;-66
2022/01/30 12:58:48;;;;;;;18.17;1.48;;;7.30;71.70;;;;;;10387378;28;20073;-65
2022/01/30 13:04:07;;;;;;;18.23;1.85;;;7.30;71.40;;;;;;10380091;28;20058;-65
2022/01/30 13:09:10;;;;;;;12.02;1.02;;;7.40;72.10;;;;;;10384435;28;20148;-64
2022/01/30 13:14:12;;;;;;;11.23;1.20;;;7.50;71.60;;;;;;10383062;28;20049;-64
2022/01/30 13:19:28;;;;;;;8.25;2.22;;;7.50;71.10;;;;;;10383662;28;20042;-64
2022/01/30 13:24:29;;;;;;;13.52;0.95;;;7.50;71.50;;;;;;10388490;28;20053;-64
2022/01/30 13:29:36;;;;;;;19.52;1.65;;;7.60;72.50;;;;;;10379814;28;20044;-63
2022/01/30 13:34:40;;;;;;;18.10;2.23;;;7.50;71.70;;;;;;10379629;28;20103;-64
2022/01/30 13:39:50;;;;;;;9.82;1.30;;;7.40;72.90;;;;;;10378481;28;20045;-64
2022/01/30 13:45:05;;;;;;;10.85;1.00;;;7.30;72.30;;;;;;10380503;28;20518;-64
2022/01/30 13:50:17;;;;;;;15.10;1.77;;;7.30;73.80;;;;;;10378005;28;20132;-64
2022/01/30 13:55:19;;;;;;;12.25;1.15;;;7.40;73.20;;;;;;10387814;28;20053;-63
2022/01/30 14:00:21;;;;;;;10.85;0.90;;;7.30;71.60;;;;;;10379317;28;20088;-62
2022/01/30 14:05:50;;;;;;;8.73;1.63;;;7.20;72.70;;;;;;10382678;28;20193;-63
2022/01/30 14:11:08;;;;;;;8.50;0.82;;;7.20;73.60;;;;;;10381960;28;20053;-63
2022/01/30 14:16:16;;;;;;;14.77;1.70;;;7.20;74.00;;;;;;10377468;28;20076;-63
2022/01/30 14:21:19;;;;;;;11.73;1.63;;;7.20;73.90;;;;;;10378067;28;20041;-63
2022/01/30 14:26:22;;;;;;;16.42;2.05;;;7.20;73.20;;;;;;10382040;28;20049;-62
2022/01/30 14:31:23;;;;;;;9.13;1.00;;;7.20;73.30;;;;;;10383358;28;20141;-61
2022/01/30 14:36:29;;;;;;;10.10;0.93;;;7.20;73.20;;;;;;10382247;28;20053;-62
2022/01/30 14:41:32;;;;;;;14.38;2.22;;;7.10;71.00;;;;;;10379501;28;20496;-62
2022/01/30 14:46:34;;;;;;;7.90;0.93;;;7.10;69.40;;;;;;10379935;28;20091;-62
2022/01/30 14:51:36;;;;;;;10.48;1.77;;;7.10;69.00;;;;;;10379043;28;20103;-62
2022/01/30 14:56:38;;;;;;;6.75;1.00;;;7.10;69.80;;;;;;10381346;28;20090;-61
2022/01/30 15:01:40;;;;;;;11.35;0.88;;;7.00;68.20;;;;;;10377843;28;20110;-61
2022/01/30 15:06:42;;;;;;;13.18;1.48;;;7.00;67.80;;;;;;10380616;28;20133;-61
2022/01/30 15:11:44;;;;;;;14.50;1.40;;;7.00;68.40;;;;;;10378509;28;20045;-61
2022/01/30 15:16:50;;;;;;;11.60;1.48;;;7.00;67.90;;;;;;10378678;28;20668;-61
2022/01/30 15:21:52;;;;;;;9.13;1.02;;;6.90;68.00;;;;;;10380927;28;20049;-61
2022/01/30 15:26:53;;;;;;;9.60;1.45;;;6.80;69.30;;;;;;10388567;28;20227;-62
2022/01/30 15:31:55;;;;;;;8.05;1.25;;;6.80;67.60;;;;;;10388359;28;20051;-62
2022/01/30 15:36:57;;;;;;;13.88;1.98;;;6.70;67.70;;;;;;10389548;28;20081;-62
2022/01/30 15:41:59;;;;;;;19.40;1.02;;;6.60;70.30;;;;;;10391515;28;20140;-61
2022/01/30 15:52:21;;;;;;;15.65;1.17;;;6.40;69.90;;;;;;10389597;28;20117;-62
2022/01/30 15:57:25;;;;;;;11.95;1.85;;;6.30;70.40;;;;;;10381559;28;20173;-62
2022/01/30 16:02:30;;;;;;;12.10;1.65;;;6.20;70.50;;;;;;10380650;28;20060;-62
2022/01/30 16:07:32;;;;;;;11.98;1.30;;;6.20;71.50;;;;;;10384756;28;20092;-62
2022/01/30 16:17:45;;;;;;;11.27;0.73;;;6.10;73.40;;;;;;10387223;28;20053;-62
2022/01/30 16:22:46;;;;;;;10.13;1.88;;;6.10;73.40;;;;;;10382694;28;20218;-62
2022/01/30 16:27:48;;;;;;;11.27;1.92;;;6.00;74.30;;;;;;10381918;28;20503;-62
2022/01/30 16:32:50;;;;;;;10.98;1.80;;;6.00;73.60;;;;;;10385375;28;20049;-62
2022/01/30 16:37:52;;;;;;;13.82;2.80;;;5.90;73.60;;;;;;10381519;28;20132;-62
2022/01/30 16:42:53;;;;;;;16.17;2.80;;;5.90;73.50;;;;;;10384936;28;20378;-63
2022/01/30 16:47:58;;;;;;;14.07;1.40;;;5.80;74.30;;;;;;10386175;28;20312;-61
2022/01/30 16:53:00;;;;;;;12.07;1.25;;;5.80;74.30;;;;;;10381989;28;20100;-60
2022/01/30 16:58:02;;;;;;;10.57;1.42;;;5.70;74.70;;;;;;10387440;28;20826;-61
2022/01/30 17:03:04;;;;;;;20.23;2.05;;;5.70;75.10;;;;;;10383847;28;20119;-60
2022/01/30 17:08:06;;;;;;;12.05;0.95;;;5.70;75.00;;;;;;10393086;28;20085;-61
2022/01/30 17:13:08;;;;;;;11.65;2.10;;;5.70;75.50;;;;;;10381324;28;20436;-62
2022/01/30 17:18:12;;;;;;;12.85;2.13;;;5.60;76.30;;;;;;10387772;28;20046;-61
2022/01/30 17:23:15;;;;;;;17.88;2.85;;;5.50;76.50;;;;;;10385043;28;20131;-61
2022/01/30 17:28:18;;;;;;;14.65;2.42;;;5.40;77.40;;;;;;10384849;28;20041;-62
2022/01/30 17:33:25;;;;;;;7.00;1.67;;;5.30;77.40;;;;;;10376484;28;20115;-60
2022/01/30 17:38:27;;;;;;;12.32;2.17;;;5.20;78.40;;;;;;10381604;28;20052;-61
2022/01/30 17:43:28;;;;;;;12.25;1.67;;;5.20;77.20;;;;;;10387875;28;20053;-61
2022/01/30 17:48:30;;;;;;;25.67;3.45;;;5.10;77.40;;;;;;10376243;28;20048;-61
2022/01/30 17:53:32;;;;;;;12.68;1.52;;;5.20;75.20;;;;;;10382497;28;20064;-60
2022/01/30 17:58:34;;;;;;;12.38;1.40;;;5.30;75.40;;;;;;10386838;28;20045;-61
2022/01/30 18:03:36;;;;;;;13.00;1.92;;;5.20;76.40;;;;;;10375339;28;20126;-60
2022/01/30 18:08:40;;;;;;;13.07;1.40;;;5.20;76.20;;;;;;10388460;28;20045;-61
2022/01/30 18:13:42;;;;;;;13.90;1.45;;;5.30;75.40;;;;;;10379826;28;20091;-61
2022/01/30 18:18:44;;;;;;;12.68;1.65;;;5.40;75.70;;;;;;10381498;28;20626;-62
2022/01/30 18:23:46;;;;;;;12.18;2.03;;;5.40;77.20;;;;;;10377824;28;20060;-62
2022/01/30 18:28:48;;;;;;;10.55;1.50;;;5.40;77.60;;;;;;10379633;28;20088;-61
2022/01/30 18:33:53;;;;;;;10.43;2.75;;;5.40;77.90;;;;;;10385312;28;20053;-60
2022/01/30 18:39:02;;;;;;;10.57;1.63;;;5.40;77.60;;;;;;10384342;28;20500;-61
2022/01/30 18:44:04;;;;;;;11.65;1.75;;;5.50;77.10;;;;;;10385266;28;20080;-61
2022/01/30 18:49:06;;;;;;;10.75;1.60;;;5.40;78.30;;;;;;10383170;28;20294;-60
2022/01/30 18:54:07;;;;;;;16.83;2.03;;;5.40;77.70;;;;;;10384982;28;20045;-61
2022/01/30 18:59:09;;;;;;;19.90;1.48;;;5.40;77.80;;;;;;10381737;28;20099;-61
2022/01/30 19:04:11;;;;;;;14.05;1.75;;;5.30;78.50;;;;;;10382342;28;20103;-60
2022/01/30 19:09:14;;;;;;;11.27;1.27;;;5.20;78.90;;;;;;10381482;28;20574;-61
2022/01/30 19:14:16;;;;;;;10.77;2.38;;;5.10;79.80;;;;;;10383480;28;20066;-61
2022/01/30 19:19:18;;;;;;;14.63;2.25;;;4.90;80.80;;;;;;10384463;28;20103;-61
2022/01/30 19:24:19;;;;;;;15.35;2.55;;;4.80;81.30;;;;;;10385295;28;23833;-61
2022/01/30 19:29:22;;;;;;;15.82;2.67;;;4.60;82.00;;;;;;10384103;28;20045;-62
2022/01/30 19:34:24;;;;;;;14.27;2.08;;;4.50;83.20;;;;;;10381720;28;20108;-62
2022/01/30 19:39:26;;;;;;;16.45;2.65;;;4.40;84.40;;;;;;10379880;28;20049;-61
2022/01/30 19:44:28;;;;;;;15.30;1.92;;;4.20;85.50;;;;;;10378333;28;20089;-61
2022/01/30 19:49:29;;;;;;;13.80;1.83;;;4.10;87.10;;;;;;10380077;28;20136;-60
2022/01/30 19:54:31;;;;;;;10.80;1.77;;;3.90;88.20;;;;;;10377457;28;20057;-61
2022/01/30 19:59:36;;;;;;;13.63;2.15;;;3.90;89.20;;;;;;10377830;28;20107;-61
2022/01/30 20:04:38;;;;;;;15.10;1.65;;;3.80;90.10;;;;;;10382655;28;20049;-59
2022/01/30 20:09:40;;;;;;;16.73;2.92;;;3.70;90.40;;;;;;10382145;28;20053;-61
2022/01/30 20:14:42;;;;;;;15.00;1.83;;;3.70;90.90;;;;;;10401206;28;20515;-61
2022/01/30 20:19:43;;;;;;;18.45;2.28;;;3.60;91.10;;;;;;10391513;28;20073;-60
2022/01/30 20:24:45;;;;;;;12.70;2.13;;;3.60;91.60;;;;;;10388455;28;20440;-61
2022/01/30 20:29:47;;;;;;;16.45;2.40;;;3.50;92.10;;;;;;10391898;28;20038;-61
2022/01/30 20:34:48;;;;;;;20.25;3.45;;;3.50;92.80;;;;;;10394540;28;20108;-62
2022/01/30 20:39:51;;;;;;;9.88;3.15;;;3.50;93.10;;;;;;10389350;28;20050;-61
2022/01/30 20:45:13;;;;;;;21.38;2.88;;;3.50;93.80;;;;;;10385537;28;20136;-61
2022/01/30 20:50:15;;;;;;;15.13;2.50;;;3.50;94.40;;;;;;10393488;28;20053;-62
2022/01/30 20:55:16;;;;;;;6.55;1.88;;;3.50;95.10;;;;;;10386991;28;20057;-61
2022/01/30 21:00:18;;;;;;;24.80;2.88;;;3.40;95.20;;;;;;10388876;28;20045;-61
2022/01/30 21:05:20;;;;;;;6.97;1.23;;;3.40;96.00;;;;;;10386111;28;20439;-63
2022/01/30 21:10:27;;;;;;;13.70;2.25;;;3.50;94.30;;;;;;10398837;28;20087;-61
2022/01/30 21:15:29;;;;;;;17.27;1.90;;;3.60;94.40;;;;;;10388275;28;20049;-62
2022/01/30 21:20:31;;;;;;;15.52;1.75;;;3.60;94.10;;;;;;10379264;28;20643;-62
2022/01/30 21:25:33;;;;;;;22.85;3.20;;;3.70;93.50;;;;;;10381816;28;20137;-61
2022/01/30 21:30:34;;;;;;;14.63;2.72;;;3.70;93.50;;;;;;10387635;28;20087;-62
2022/01/30 21:35:36;;;;;;;3.47;1.60;;;3.70;93.30;;;;;;10386083;28;20496;-60
2022/01/30 21:40:38;;;;;;;15.85;2.33;;;3.70;94.80;;;;;;10392903;28;20044;-61
2022/01/30 21:45:39;;;;;;;23.05;2.20;;;3.70;97.00;;;;;;10386417;28;20127;-61
2022/01/30 21:50:42;;;;;;;9.13;1.77;;;3.60;97.00;;;;;;10385284;28;20046;-60
2022/01/30 21:55:44;;;;;;;6.53;1.45;;;3.50;98.70;;;;;;10384013;28;20129;-61
2022/01/30 22:00:46;;;;;;;16.05;2.53;;;3.40;98.90;;;;;;10382914;28;20076;-61
2022/01/30 22:05:48;;;;;;;14.52;2.67;;;3.40;99.80;;;;;;10386300;28;20092;-61
2022/01/30 22:10:50;;;;;;;15.45;2.20;;;3.30;98.90;;;;;;10376804;28;20320;-61
2022/01/30 22:15:54;;;;;;;13.15;1.85;;;3.20;99.90;;;;;;10386096;28;20127;-61
2022/01/30 22:20:55;;;;;;;8.18;1.77;;;3.10;99.90;;;;;;10385459;28;20110;-62
2022/01/30 22:25:57;;;;;;;9.27;1.38;;;3.00;99.90;;;;;;10384887;28;20136;-62
2022/01/30 22:30:59;;;;;;;13.15;2.38;;;3.10;99.90;;;;;;10384830;28;20116;-60
2022/01/30 22:36:01;;;;;;;23.35;2.20;;;3.00;99.90;;;;;;10379180;28;20057;-61
2022/01/30 22:41:02;;;;;;;13.82;1.92;;;3.00;99.90;;;;;;10388869;28;20073;-61
2022/01/30 22:46:04;;;;;;;13.52;3.17;;;3.00;99.90;;;;;;10376680;28;20133;-62
2022/01/30 22:51:06;;;;;;;16.70;2.63;;;2.90;99.90;;;;;;10382378;28;20041;-60
2022/01/30 22:56:08;;;;;;;9.77;2.15;;;2.90;99.90;;;;;;10383995;28;20049;-60
2022/01/30 23:01:09;;;;;;;14.93;2.72;;;2.90;99.90;;;;;;10382010;28;20508;-60
2022/01/30 23:06:12;;;;;;;12.73;2.28;;;2.90;99.90;;;;;;10378132;28;20045;-61
2022/01/30 23:11:14;;;;;;;15.43;2.20;;;2.90;99.90;;;;;;10375395;28;20111;-62
2022/01/30 23:16:15;;;;;;;12.55;2.45;;;2.80;99.90;;;;;;10380357;28;20049;-61
2022/01/30 23:21:17;;;;;;;20.10;3.03;;;2.70;99.90;;;;;;10376043;28;20069;-60
2022/01/30 23:26:19;;;;;;;21.10;2.72;;;2.60;99.90;;;;;;10374640;28;20083;-60
2022/01/30 23:31:21;;;;;;;16.08;2.55;;;2.60;99.90;;;;;;10380168;28;20127;-61
2022/01/30 23:36:23;;;;;;;23.35;3.67;;;2.70;99.90;;;;;;10374952;28;20045;-60
2022/01/30 23:41:28;;;;;;;18.42;2.20;;;2.60;99.90;;;;;;10382428;28;20211;-60
2022/01/30 23:46:31;;;;;;;14.88;2.42;;;2.70;99.90;;;;;;10381683;28;20558;-60
2022/01/30 23:51:33;;;;;;;11.85;1.38;;;2.70;99.90;;;;;;10383101;28;20392;-61
2022/01/30 23:56:35;;;;;;;18.90;2.47;;;2.80;99.90;;;;;;10388416;28;20463;-60
